Time;durP1;ratioP1;P1;durP2;ratioP2;P2;SDS_P1;SDS_P2;PMS_P1;PMS_P2;Temp;Humidity;BMP_temperature;BMP_pressure;BME280_temperature;BME280_humidity;BME280_pressure;Samples;Min_cycle;Max_cycle;Signal;HPM_P1;HPM_P2
2024/02/22 05:00:28;;;;;;;2.07;1.97;;;8.20;99.90;;;;;;5917622;23;21637;31
2024/02/22 05:02:54;;;;;;;1.80;1.80;;;8.20;99.90;;;;;;4850762;29;20488;-69
2024/02/22 05:05:21;;;;;;;3.13;2.47;;;8.20;99.90;;;;;;4858826;29;20216;-70
2024/02/22 05:07:48;;;;;;;2.00;2.00;;;8.20;99.90;;;;;;4858210;29;20295;-70
2024/02/22 05:10:15;;;;;;;1.85;1.75;;;8.20;99.90;;;;;;4854302;29;20223;-70
2024/02/22 05:12:42;;;;;;;1.80;1.80;;;8.20;99.90;;;;;;4840963;29;20570;-69
2024/02/22 05:15:10;;;;;;;1.13;1.10;;;8.20;99.90;;;;;;4846757;29;20683;-69
2024/02/22 05:17:39;;;;;;;1.65;1.65;;;8.20;99.90;;;;;;4841142;29;20213;-69
2024/02/22 05:20:07;;;;;;;1.55;1.55;;;8.20;99.90;;;;;;4840769;29;20214;-71
2024/02/22 05:22:34;;;;;;;2.42;1.45;;;8.30;99.90;;;;;;4841327;29;20373;-70
2024/02/22 05:25:00;;;;;;;2.35;2.15;;;8.30;99.90;;;;;;4840685;29;20214;-70
2024/02/22 05:27:27;;;;;;;1.52;1.45;;;8.30;99.90;;;;;;4845014;29;20319;-69
2024/02/22 05:29:54;;;;;;;1.52;1.42;;;8.30;99.90;;;;;;4844262;29;20229;-70
2024/02/22 05:32:20;;;;;;;2.40;2.25;;;8.30;99.90;;;;;;4838185;29;20253;-69
2024/02/22 05:34:48;;;;;;;1.83;1.77;;;8.30;99.90;;;;;;4838354;29;20687;-69
2024/02/22 05:37:15;;;;;;;1.50;1.48;;;8.30;99.90;;;;;;4840566;29;20213;-68
2024/02/22 05:39:42;;;;;;;1.20;1.15;;;;;;;;;;4840263;29;20594;-69
2024/02/22 05:42:09;;;;;;;1.02;1.02;;;8.00;99.90;;;;;;4837998;29;20229;-68
2024/02/22 05:44:36;;;;;;;1.25;1.25;;;8.10;99.90;;;;;;4838632;29;20229;-69
2024/02/22 05:47:03;;;;;;;0.82;0.82;;;8.10;99.90;;;;;;4840506;29;20293;-69
2024/02/22 05:49:30;;;;;;;1.35;1.35;;;8.10;99.90;;;;;;4839965;29;20597;-69
2024/02/22 05:51:58;;;;;;;1.10;1.10;;;8.00;99.90;;;;;;4839057;29;20238;-69
2024/02/22 05:54:25;;;;;;;1.30;1.20;;;7.90;99.90;;;;;;4839416;29;20209;-69
2024/02/22 05:56:51;;;;;;;1.05;1.05;;;7.90;99.90;;;;;;4839897;29;20304;-69
2024/02/22 05:59:18;;;;;;;2.35;2.35;;;7.90;99.90;;;;;;4838219;29;20697;-69
2024/02/22 06:01:45;;;;;;;1.17;1.13;;;7.90;99.90;;;;;;4837679;29;20242;-69
2024/02/22 06:04:11;;;;;;;1.40;1.10;;;7.90;99.90;;;;;;4838342;29;20240;-68
2024/02/22 06:06:38;;;;;;;1.33;0.80;;;7.90;99.90;;;;;;4839302;29;20229;-72
2024/02/22 06:09:08;;;;;;;1.00;1.00;;;7.90;99.90;;;;;;4838384;29;20213;-70
2024/02/22 06:11:34;;;;;;;1.20;1.00;;;7.90;99.90;;;;;;4841516;29;20237;-71
2024/02/22 06:14:01;;;;;;;0.90;0.90;;;7.90;99.90;;;;;;4839742;29;20711;-71
2024/02/22 06:16:28;;;;;;;0.95;0.95;;;7.90;99.90;;;;;;4839580;29;20216;-70
2024/02/22 06:18:55;;;;;;;1.67;1.58;;;8.00;99.90;;;;;;4840852;29;20626;-71
2024/02/22 06:21:21;;;;;;;1.33;1.33;;;8.00;99.90;;;;;;4838455;29;20596;-70
2024/02/22 06:23:48;;;;;;;1.42;1.23;;;8.00;99.90;;;;;;4839652;29;20229;-70
2024/02/22 06:26:16;;;;;;;1.40;1.40;;;7.90;99.90;;;;;;4839277;29;20653;-70
2024/02/22 06:28:43;;;;;;;1.15;1.15;;;8.00;99.90;;;;;;4843000;29;20597;-70
2024/02/22 06:31:09;;;;;;;1.00;0.98;;;7.90;99.90;;;;;;4840251;29;20236;-70
2024/02/22 06:33:38;;;;;;;1.17;1.17;;;7.90;99.90;;;;;;4835722;29;20241;-69
2024/02/22 06:36:06;;;;;;;0.60;0.60;;;8.10;99.90;;;;;;4839193;29;20727;-70
2024/02/22 06:38:33;;;;;;;0.77;0.77;;;8.10;99.90;;;;;;4837516;29;20218;-70
2024/02/22 06:41:00;;;;;;;1.50;1.50;;;8.00;99.90;;;;;;4838250;29;20233;-70
2024/02/22 06:43:28;;;;;;;1.30;1.20;;;8.00;99.90;;;;;;4837577;29;20237;-70
2024/02/22 06:45:54;;;;;;;0.82;0.82;;;8.00;99.90;;;;;;4838446;29;20228;-70
2024/02/22 06:48:21;;;;;;;1.25;1.25;;;8.00;99.90;;;;;;4839521;29;20484;-70
2024/02/22 06:50:48;;;;;;;1.52;1.38;;;8.00;99.90;;;;;;4836875;29;20237;-71
2024/02/22 06:53:14;;;;;;;0.93;0.93;;;8.00;99.90;;;;;;4840232;29;20228;-70
2024/02/22 06:55:41;;;;;;;3.55;1.25;;;8.00;99.90;;;;;;4838619;29;20589;-70
2024/02/22 06:58:08;;;;;;;0.57;0.57;;;8.10;99.90;;;;;;4837860;29;20249;-70
2024/02/22 07:00:36;;;;;;;1.27;1.27;;;8.10;99.90;;;;;;4836041;29;20244;-69
2024/02/22 07:03:03;;;;;;;2.88;1.17;;;8.10;99.90;;;;;;4840443;29;20239;-69
2024/02/22 07:05:30;;;;;;;1.33;1.23;;;;;;;;;;4839702;29;20210;-69
2024/02/22 07:07:56;;;;;;;0.82;0.82;;;8.10;99.90;;;;;;4839337;29;20214;-69
2024/02/22 07:10:24;;;;;;;1.13;1.13;;;8.30;99.90;;;;;;4836648;29;20237;-70
2024/02/22 07:12:51;;;;;;;1.27;1.27;;;8.10;99.90;;;;;;4840142;29;20248;-69
2024/02/22 07:15:16;;;;;;;1.60;1.50;;;8.10;99.90;;;;;;4836617;29;20366;-69
2024/02/22 07:17:45;;;;;;;1.30;1.30;;;8.10;99.90;;;;;;4837475;29;20292;-70
2024/02/22 07:20:13;;;;;;;0.75;0.75;;;8.10;99.90;;;;;;4837818;29;20223;-71
2024/02/22 07:22:42;;;;;;;0.40;0.40;;;8.50;99.90;;;;;;4838210;29;20787;-70
2024/02/22 07:25:11;;;;;;;1.50;1.45;;;8.20;99.90;;;;;;4836435;29;20331;-70
2024/02/22 07:27:39;;;;;;;0.90;0.90;;;8.20;99.90;;;;;;4888889;23;20258;-70
2024/02/22 07:30:07;;;;;;;16.70;9.25;;;8.30;99.90;;;;;;4893350;29;20211;-71
2024/02/22 07:32:34;;;;;;;3.03;2.83;;;8.40;99.90;;;;;;4898089;29;20226;-71
2024/02/22 07:35:02;;;;;;;23.67;12.43;;;8.40;99.90;;;;;;4898745;29;20212;-71
2024/02/22 07:37:29;;;;;;;23.48;14.73;;;8.50;99.90;;;;;;4893568;29;20232;-72
2024/02/22 07:39:55;;;;;;;42.10;22.90;;;8.50;99.90;;;;;;4899177;29;20634;-72
2024/02/22 07:42:23;;;;;;;34.58;16.40;;;8.60;99.90;;;;;;4899124;29;20330;-72
2024/02/22 07:44:49;;;;;;;23.90;13.02;;;8.60;99.90;;;;;;4897995;29;20697;-72
2024/02/22 07:47:16;;;;;;;36.95;19.95;;;8.60;99.90;;;;;;4897628;29;20246;-70
2024/02/22 07:49:44;;;;;;;18.10;8.40;;;8.70;99.90;;;;;;4896559;29;20231;-71
2024/02/22 07:52:13;;;;;;;19.65;13.52;;;8.70;99.90;;;;;;4898288;29;20244;-73
2024/02/22 07:54:40;;;;;;;17.30;12.18;;;8.70;99.90;;;;;;4896437;29;20225;-71
2024/02/22 07:57:07;;;;;;;4.90;4.25;;;8.80;99.90;;;;;;4898491;29;20683;-71
2024/02/22 07:59:34;;;;;;;13.13;9.13;;;8.80;99.90;;;;;;4896507;29;20222;-72
2024/02/22 08:02:00;;;;;;;31.35;21.55;;;8.80;99.90;;;;;;4897616;29;20248;-71
2024/02/22 08:04:27;;;;;;;44.15;23.15;;;8.80;99.90;;;;;;4895796;29;20566;-71
2024/02/22 08:06:54;;;;;;;9.48;7.40;;;8.90;99.90;;;;;;4899265;29;20214;-72
2024/02/22 08:09:23;;;;;;;38.47;21.17;;;8.90;99.90;;;;;;4897561;29;20241;-71
2024/02/22 08:11:50;;;;;;;9.23;6.60;;;8.90;99.90;;;;;;4896371;29;20209;-72
2024/02/22 08:14:17;;;;;;;6.78;5.50;;;8.90;99.90;;;;;;4899294;29;20713;-72
2024/02/22 08:16:44;;;;;;;17.83;11.95;;;8.90;99.90;;;;;;4901406;29;20236;-72
2024/02/22 08:19:10;;;;;;;22.55;13.43;;;8.90;99.90;;;;;;4902871;29;20230;-72
2024/02/22 08:21:37;;;;;;;7.85;4.85;;;9.00;99.90;;;;;;4901063;29;20280;-72
2024/02/22 08:24:04;;;;;;;21.92;12.35;;;8.90;99.90;;;;;;4893354;29;20233;-73
2024/02/22 08:26:32;;;;;;;21.88;13.00;;;8.90;99.90;;;;;;4892907;29;20214;-72
2024/02/22 08:28:59;;;;;;;14.82;8.82;;;9.00;99.90;;;;;;4897885;29;20275;-72
2024/02/22 08:31:26;;;;;;;20.42;11.25;;;9.00;99.90;;;;;;4893442;29;20251;-72
2024/02/22 08:33:52;;;;;;;13.27;6.85;;;9.00;99.90;;;;;;4896563;29;20221;-72
2024/02/22 08:36:19;;;;;;;16.70;10.60;;;9.00;99.90;;;;;;4896333;29;20209;-71
2024/02/22 08:38:46;;;;;;;45.45;21.10;;;9.00;99.90;;;;;;4897496;29;20248;-72
2024/02/22 08:41:12;;;;;;;16.65;11.70;;;9.00;99.90;;;;;;4896181;29;20243;-72
2024/02/22 08:43:42;;;;;;;8.82;6.35;;;9.10;99.90;;;;;;4895296;29;20249;-71
2024/02/22 08:46:08;;;;;;;23.30;11.10;;;9.20;99.90;;;;;;4894279;29;20763;-73
2024/02/22 08:48:36;;;;;;;12.57;8.25;;;9.20;99.90;;;;;;4891337;29;20226;-71
2024/02/22 08:51:03;;;;;;;6.53;4.95;;;9.20;99.90;;;;;;4891517;29;20215;-73
2024/02/22 08:53:30;;;;;;;18.33;10.27;;;9.20;99.90;;;;;;4894259;29;20224;-70
2024/02/22 08:55:56;;;;;;;3.75;3.42;;;9.30;99.90;;;;;;4891999;29;20226;-72
2024/02/22 08:58:23;;;;;;;5.78;4.95;;;9.30;99.90;;;;;;4896949;29;20246;-71
2024/02/22 09:00:51;;;;;;;7.78;6.18;;;9.40;99.90;;;;;;4897007;29;20692;-71
2024/02/22 09:03:18;;;;;;;4.60;4.25;;;9.40;99.90;;;;;;4896866;29;20306;-72
2024/02/22 09:05:45;;;;;;;4.70;4.30;;;9.50;99.90;;;;;;4896946;29;20343;-72
2024/02/22 09:08:12;;;;;;;2.15;2.05;;;9.50;99.90;;;;;;4896827;29;20733;-71
2024/02/22 09:10:38;;;;;;;3.25;3.03;;;9.40;99.90;;;;;;4896530;29;20214;-70
2024/02/22 09:13:05;;;;;;;1.38;1.27;;;9.40;99.90;;;;;;4895519;29;20257;-72
2024/02/22 09:15:32;;;;;;;1.75;1.75;;;9.30;99.90;;;;;;4895896;29;20203;-71
2024/02/22 09:18:00;;;;;;;2.90;2.80;;;9.40;99.90;;;;;;4896742;29;20242;-72
2024/02/22 09:20:28;;;;;;;2.38;2.15;;;9.40;99.90;;;;;;4896056;29;20214;-72
2024/02/22 09:22:54;;;;;;;1.45;1.45;;;9.50;99.90;;;;;;4896949;29;20207;-72
2024/02/22 09:25:21;;;;;;;9.52;2.90;;;9.60;99.90;;;;;;4896823;29;20231;-70
2024/02/22 09:27:48;;;;;;;2.45;2.35;;;9.60;99.90;;;;;;4895303;29;20605;-69
2024/02/22 09:30:15;;;;;;;1.70;1.55;;;9.70;99.90;;;;;;4896862;29;20215;-72
2024/02/22 09:32:42;;;;;;;2.05;1.83;;;9.60;99.90;;;;;;4897522;29;20218;-71
2024/02/22 09:35:10;;;;;;;1.70;1.70;;;9.60;99.90;;;;;;4896303;29;20241;-69
2024/02/22 09:37:37;;;;;;;1.50;1.50;;;9.70;99.90;;;;;;4894225;29;20237;-70
2024/02/22 09:40:04;;;;;;;1.10;1.10;;;9.60;99.90;;;;;;4892667;29;20689;-70
2024/02/22 09:42:31;;;;;;;2.25;2.03;;;9.70;99.90;;;;;;4895309;29;20597;-70
2024/02/22 09:44:58;;;;;;;1.00;1.00;;;9.70;99.90;;;;;;4896333;29;20244;-72
2024/02/22 09:47:25;;;;;;;1.05;1.00;;;9.80;99.90;;;;;;4896884;29;20243;-71
2024/02/22 09:49:52;;;;;;;0.95;0.95;;;9.80;99.90;;;;;;4895405;29;20223;-71
2024/02/22 09:52:21;;;;;;;0.70;0.70;;;9.90;99.90;;;;;;4896678;29;20223;-71
2024/02/22 09:54:48;;;;;;;1.63;1.63;;;9.90;99.90;;;;;;4896822;29;20621;-72
2024/02/22 09:57:15;;;;;;;1.13;1.13;;;10.00;99.90;;;;;;4895815;29;20211;-70
2024/02/22 09:59:48;;;;;;;0.90;0.80;;;10.00;99.90;;;;;;4895655;29;20374;-72
2024/02/22 10:02:15;;;;;;;1.45;1.45;;;10.10;99.90;;;;;;4896430;29;20836;-70
2024/02/22 10:04:51;;;;;;;5.18;2.22;;;10.10;99.90;;;;;;4897127;29;20227;-72
2024/02/22 10:07:23;;;;;;;2.92;1.58;;;10.20;99.90;;;;;;4896274;29;20265;-72
2024/02/22 10:09:50;;;;;;;2.28;2.20;;;10.20;99.90;;;;;;4895497;29;20208;-72
2024/02/22 10:12:28;;;;;;;5.72;3.08;;;10.30;99.90;;;;;;4895550;29;20286;-71
2024/02/22 10:14:55;;;;;;;2.40;2.40;;;10.30;99.90;;;;;;4896285;29;20215;-71
2024/02/22 10:17:23;;;;;;;1.80;1.80;;;10.40;99.90;;;;;;4895602;29;20671;-72
2024/02/22 10:20:00;;;;;;;1.07;1.07;;;10.50;99.90;;;;;;4895658;29;20461;-71
2024/02/22 10:22:31;;;;;;;2.70;2.60;;;10.60;99.90;;;;;;4895928;29;20516;-71
2024/02/22 10:25:08;;;;;;;0.97;0.63;;;10.70;99.90;;;;;;4895337;29;20747;-72
2024/02/22 10:27:35;;;;;;;2.43;2.33;;;10.70;99.90;;;;;;4891035;29;20505;-72
2024/02/22 10:30:08;;;;;;;2.97;2.87;;;10.70;99.90;;;;;;4895810;29;20477;-72
2024/02/22 10:32:36;;;;;;;4.32;3.90;;;10.80;99.90;;;;;;4886195;29;20903;-72
2024/02/22 10:35:06;;;;;;;1.17;1.17;;;10.90;99.90;;;;;;4889189;29;20213;-72
2024/02/22 10:37:34;;;;;;;1.20;1.20;;;11.00;99.90;;;;;;4896385;29;20503;-72
2024/02/22 10:40:03;;;;;;;1.10;1.10;;;11.00;99.90;;;;;;4895129;29;20851;-71
2024/02/22 10:42:30;;;;;;;2.33;2.23;;;11.00;99.90;;;;;;4896953;29;20464;-71
2024/02/22 10:44:57;;;;;;;1.53;1.43;;;11.00;99.90;;;;;;4896503;29;20491;-71
2024/02/22 10:47:26;;;;;;;1.73;1.63;;;10.90;99.90;;;;;;4896176;29;20834;-72
2024/02/22 10:49:56;;;;;;;1.88;1.88;;;10.90;99.90;;;;;;4895272;29;20464;-72
2024/02/22 10:52:24;;;;;;;1.47;1.47;;;10.90;99.90;;;;;;4895338;29;20586;-72
2024/02/22 10:54:56;;;;;;;1.60;1.60;;;10.90;99.90;;;;;;4895589;29;21051;-71
2024/02/22 10:57:24;;;;;;;1.35;1.25;;;10.80;99.90;;;;;;4896270;29;20487;-70
2024/02/22 10:59:54;;;;;;;2.37;1.93;;;10.80;99.90;;;;;;4895550;29;20216;-72
2024/02/22 11:02:21;;;;;;;3.08;2.92;;;10.70;99.90;;;;;;4895563;29;20463;-72
2024/02/22 11:04:48;;;;;;;3.10;2.33;;;10.70;99.90;;;;;;4895760;29;20239;-71
2024/02/22 11:07:19;;;;;;;4.70;2.67;;;10.70;99.90;;;;;;4894623;29;20236;-72
2024/02/22 11:09:49;;;;;;;3.83;3.33;;;10.70;99.90;;;;;;4898246;29;20275;-71
2024/02/22 11:12:33;;;;;;;9.10;3.70;;;10.70;99.90;;;;;;5091881;27;20572;-71
2024/02/22 11:15:07;;;;;;;4.13;3.50;;;10.70;99.90;;;;;;5090601;28;20233;-72
2024/02/22 11:17:34;;;;;;;4.68;3.42;;;10.70;99.90;;;;;;5085089;28;20244;-72
2024/02/22 11:20:06;;;;;;;5.85;4.30;;;10.70;99.90;;;;;;5063454;28;20214;-71
2024/02/22 11:22:34;;;;;;;9.30;4.97;;;10.70;99.90;;;;;;5056506;28;20222;-72
2024/02/22 11:25:02;;;;;;;4.85;3.33;;;10.70;99.90;;;;;;5060375;28;20617;-73
2024/02/22 11:27:29;;;;;;;6.43;4.90;;;10.70;99.90;;;;;;5062875;28;20295;-72
2024/02/22 11:29:58;;;;;;;5.50;4.72;;;10.80;99.90;;;;;;5066594;28;20306;-72
2024/02/22 11:32:25;;;;;;;5.22;4.10;;;10.80;99.90;;;;;;5065563;28;20640;-72
2024/02/22 11:34:53;;;;;;;6.53;4.33;;;10.80;99.90;;;;;;5066870;28;20198;-72
2024/02/22 11:37:20;;;;;;;7.88;4.43;;;10.90;99.90;;;;;;5067536;28;20911;-70
2024/02/22 11:39:47;;;;;;;9.90;6.30;;;10.90;99.90;;;;;;5062317;28;21689;-70
2024/02/22 11:42:15;;;;;;;8.27;5.15;;;10.90;99.90;;;;;;5062878;28;20454;-71
2024/02/22 11:44:42;;;;;;;6.67;4.53;;;10.90;99.90;;;;;;5066021;28;20226;-71
2024/02/22 11:47:12;;;;;;;8.70;5.53;;;10.90;99.90;;;;;;5067408;28;20461;-69
2024/02/22 11:49:38;;;;;;;8.87;6.20;;;10.90;99.90;;;;;;5066313;28;20470;-70
2024/02/22 11:52:06;;;;;;;11.67;7.03;;;10.90;99.90;;;;;;5062726;28;20489;-71
2024/02/22 11:54:33;;;;;;;11.10;6.90;;;11.00;99.90;;;;;;5066681;28;20539;-70
2024/02/22 11:57:02;;;;;;;8.25;7.35;;;11.10;99.90;;;;;;5066461;28;20474;-71
2024/02/22 11:59:29;;;;;;;11.97;7.67;;;11.20;99.90;;;;;;5065358;28;20960;-70
2024/02/22 12:01:56;;;;;;;12.77;8.90;;;11.20;99.90;;;;;;5067048;28;20516;-71
2024/02/22 12:04:25;;;;;;;13.70;9.70;;;11.30;99.90;;;;;;5066999;28;20462;-71
2024/02/22 12:06:53;;;;;;;17.77;10.83;;;11.40;99.90;;;;;;5066860;28;20462;-71
2024/02/22 12:09:20;;;;;;;11.53;6.97;;;11.40;99.90;;;;;;5065282;28;20486;-72
2024/02/22 12:11:47;;;;;;;14.50;9.63;;;11.40;99.90;;;;;;5067698;28;20490;-71
2024/02/22 12:14:14;;;;;;;9.70;7.47;;;11.40;99.90;;;;;;5067765;28;20470;-72
2024/02/22 12:16:41;;;;;;;13.70;6.70;;;11.40;99.90;;;;;;5068352;28;20829;-71
2024/02/22 12:19:08;;;;;;;11.03;7.07;;;11.50;99.90;;;;;;5065831;28;20504;-72
2024/02/22 12:21:38;;;;;;;11.20;8.40;;;11.60;99.90;;;;;;5067938;28;20458;-70
2024/02/22 12:24:06;;;;;;;10.00;7.30;;;11.60;99.90;;;;;;5049125;28;20467;-70
2024/02/22 12:26:33;;;;;;;11.20;6.97;;;11.60;99.90;;;;;;5053550;28;20546;-71
2024/02/22 12:28:59;;;;;;;11.53;7.67;;;11.60;99.90;;;;;;5054877;28;20491;-70
2024/02/22 12:31:27;;;;;;;11.53;7.20;;;11.70;99.90;;;;;;5051710;28;20960;-70
2024/02/22 12:33:55;;;;;;;10.50;8.70;;;11.70;99.90;;;;;;5054341;28;20464;-71
2024/02/22 12:36:23;;;;;;;12.30;7.63;;;11.80;99.90;;;;;;5053998;28;20460;-71
2024/02/22 12:38:51;;;;;;;12.67;8.60;;;11.90;99.90;;;;;;5053017;28;20496;-70
2024/02/22 12:41:18;;;;;;;14.00;7.13;;;12.00;99.90;;;;;;5052567;28;20465;-72
2024/02/22 12:43:48;;;;;;;6.43;4.70;;;12.00;99.90;;;;;;5053053;28;20460;-71
2024/02/22 12:46:15;;;;;;;5.80;4.90;;;11.90;99.90;;;;;;5052421;28;20467;-72
2024/02/22 12:48:43;;;;;;;8.53;6.40;;;11.90;99.90;;;;;;5054305;28;20541;-71
2024/02/22 12:51:10;;;;;;;5.77;4.87;;;11.90;99.90;;;;;;5048227;28;21054;-71
2024/02/22 12:53:36;;;;;;;6.80;4.73;;;11.70;99.90;;;;;;5054311;28;20484;-71
2024/02/22 12:56:06;;;;;;;6.20;4.30;;;11.70;99.90;;;;;;5048352;28;20881;-71
2024/02/22 12:58:33;;;;;;;4.73;4.27;;;11.70;99.90;;;;;;5048179;28;20487;-72
2024/02/22 13:01:02;;;;;;;5.53;5.03;;;11.80;99.90;;;;;;5047929;28;20959;-72
2024/02/22 13:03:29;;;;;;;5.73;4.90;;;11.80;99.90;;;;;;5052528;28;20456;-73
2024/02/22 13:05:56;;;;;;;7.70;3.97;;;11.80;99.90;;;;;;5051716;28;20537;-72
2024/02/22 13:08:22;;;;;;;9.83;7.20;;;11.90;99.90;;;;;;5049942;28;21009;-71
2024/02/22 13:10:50;;;;;;;6.23;5.73;;;11.90;99.90;;;;;;5051106;28;20467;-71
2024/02/22 13:13:18;;;;;;;15.47;9.83;;;11.90;99.90;;;;;;5051325;28;20479;-71
2024/02/22 13:15:47;;;;;;;9.57;5.53;;;11.90;99.90;;;;;;5051870;28;20463;-72
2024/02/22 13:18:14;;;;;;;4.13;3.77;;;11.90;99.90;;;;;;5050949;28;20570;-70
2024/02/22 13:20:41;;;;;;;12.60;6.53;;;11.80;99.90;;;;;;5051435;28;20492;-71
2024/02/22 13:23:08;;;;;;;11.00;8.03;;;11.80;99.90;;;;;;5050543;28;20505;-72
2024/02/22 13:25:35;;;;;;;5.10;4.70;;;11.80;99.90;;;;;;5050664;28;20470;-72
2024/02/22 13:28:01;;;;;;;10.63;9.20;;;11.80;99.90;;;;;;5052086;28;20510;-71
2024/02/22 13:30:30;;;;;;;9.20;7.83;;;11.80;99.90;;;;;;5050934;28;20490;-70
2024/02/22 13:32:57;;;;;;;18.23;10.90;;;11.70;99.90;;;;;;5052042;28;20817;-71
2024/02/22 13:35:24;;;;;;;7.83;6.30;;;11.70;99.90;;;;;;5049459;28;20478;-71
2024/02/22 13:37:53;;;;;;;6.57;4.57;;;11.60;99.90;;;;;;5051834;28;20487;-69
2024/02/22 13:40:21;;;;;;;7.80;5.93;;;11.70;99.90;;;;;;5051039;28;20490;-71
2024/02/22 13:42:48;;;;;;;14.30;11.50;;;11.70;99.90;;;;;;5046711;28;20493;-72
2024/02/22 13:45:15;;;;;;;12.10;8.03;;;11.80;99.90;;;;;;5048249;28;20949;-70
2024/02/22 13:47:43;;;;;;;15.27;10.07;;;11.80;99.90;;;;;;5051216;28;20486;-69
2024/02/22 13:50:10;;;;;;;6.37;5.87;;;11.90;99.90;;;;;;5050892;28;20468;-67
2024/02/22 13:52:37;;;;;;;8.30;6.90;;;11.90;99.90;;;;;;5051657;28;20598;-67
2024/02/22 13:55:07;;;;;;;7.43;5.23;;;12.00;99.90;;;;;;5050168;28;20471;-66
2024/02/22 13:57:34;;;;;;;11.60;8.80;;;12.00;99.90;;;;;;5050312;28;20602;-67
2024/02/22 14:00:01;;;;;;;19.50;11.67;;;12.10;99.90;;;;;;5050131;28;20844;-67
2024/02/22 14:02:27;;;;;;;7.10;6.40;;;12.10;99.90;;;;;;5051412;28;20457;-67
2024/02/22 14:04:56;;;;;;;4.77;4.40;;;12.00;99.90;;;;;;5050382;28;20836;-66
2024/02/22 14:07:23;;;;;;;2.07;2.00;;;12.00;99.90;;;;;;5050680;28;20895;-67
2024/02/22 14:09:52;;;;;;;6.73;5.03;;;11.90;99.90;;;;;;5048681;28;20459;-67
2024/02/22 14:12:18;;;;;;;6.23;5.43;;;11.90;99.90;;;;;;5043932;28;20525;-67
2024/02/22 14:14:45;;;;;;;5.87;5.27;;;11.80;99.90;;;;;;5051096;28;20593;-69
2024/02/22 14:17:12;;;;;;;13.23;9.83;;;11.80;99.90;;;;;;5049372;28;20481;-67
2024/02/22 14:19:39;;;;;;;3.40;3.10;;;11.80;99.90;;;;;;5047851;28;20895;-68
2024/02/22 14:22:07;;;;;;;5.77;5.20;;;11.70;99.90;;;;;;5041084;28;20466;-69
2024/02/22 14:24:34;;;;;;;7.47;6.80;;;11.70;99.90;;;;;;5049033;28;20470;-68
2024/02/22 14:27:02;;;;;;;5.23;4.83;;;11.70;99.90;;;;;;5050362;28;20479;-68
2024/02/22 14:29:28;;;;;;;3.30;3.07;;;11.80;99.90;;;;;;5049955;28;20465;-67
2024/02/22 14:31:55;;;;;;;2.73;2.60;;;11.80;99.90;;;;;;5050041;28;20973;-68
2024/02/22 14:34:22;;;;;;;9.90;8.60;;;11.90;99.90;;;;;;5049634;28;20467;-68
2024/02/22 14:36:49;;;;;;;2.73;2.50;;;11.90;99.90;;;;;;5049495;28;20491;-68
2024/02/22 14:39:17;;;;;;;2.03;2.03;;;11.90;99.90;;;;;;5049601;28;20488;-69
2024/02/22 14:41:43;;;;;;;1.93;1.80;;;12.00;99.90;;;;;;5049964;28;20464;-67
2024/02/22 14:44:11;;;;;;;1.73;1.73;;;12.00;99.90;;;;;;5046803;28;20786;-67
2024/02/22 14:46:38;;;;;;;3.90;2.93;;;11.90;99.90;;;;;;5049600;28;20990;-68
2024/02/22 14:49:04;;;;;;;3.33;3.13;;;11.90;99.90;;;;;;5049967;28;20505;-67
2024/02/22 14:51:33;;;;;;;3.27;3.00;;;11.90;99.90;;;;;;5048357;28;20486;-67
2024/02/22 14:54:00;;;;;;;3.03;1.63;;;11.80;99.90;;;;;;5046642;28;20483;-69
2024/02/22 14:56:28;;;;;;;2.50;1.70;;;11.80;99.90;;;;;;5046501;28;20486;-68
2024/02/22 14:58:54;;;;;;;2.10;1.97;;;11.80;99.90;;;;;;5049591;28;20489;-69
2024/02/22 15:01:21;;;;;;;1.67;1.67;;;11.80;99.90;;;;;;5048787;28;20483;-67
2024/02/22 15:03:48;;;;;;;2.10;2.00;;;11.80;99.90;;;;;;5047945;28;20472;-68
2024/02/22 15:06:16;;;;;;;1.53;1.53;;;11.80;99.90;;;;;;5049809;28;20456;-68
2024/02/22 15:08:43;;;;;;;1.80;1.70;;;11.90;99.90;;;;;;5049891;28;20487;-68
2024/02/22 15:11:09;;;;;;;1.83;1.73;;;12.00;99.90;;;;;;5046157;28;20544;-68
2024/02/22 15:13:39;;;;;;;1.70;1.60;;;12.10;99.90;;;;;;5049053;28;20569;-69
2024/02/22 15:16:06;;;;;;;1.40;1.27;;;12.20;99.90;;;;;;5049926;28;20487;-68
2024/02/22 15:18:33;;;;;;;1.77;1.67;;;12.20;99.90;;;;;;5048039;28;20484;-67
2024/02/22 15:20:59;;;;;;;1.23;1.23;;;12.20;99.90;;;;;;5049636;28;20486;-67
2024/02/22 15:23:30;;;;;;;0.70;0.70;;;12.10;99.90;;;;;;5047130;28;20475;-67
2024/02/22 15:25:57;;;;;;;1.57;1.47;;;12.10;99.90;;;;;;5047383;28;20463;-69
2024/02/22 15:28:24;;;;;;;1.07;1.00;;;12.00;99.90;;;;;;5048371;28;20482;-68
2024/02/22 15:30:52;;;;;;;1.10;1.10;;;12.00;99.90;;;;;;5045445;28;20590;-69
2024/02/22 15:33:18;;;;;;;0.70;0.70;;;11.90;99.90;;;;;;5041384;28;20948;-69
2024/02/22 15:35:45;;;;;;;1.07;1.07;;;12.00;99.90;;;;;;5051100;28;20456;-67
2024/02/22 15:38:12;;;;;;;4.30;1.00;;;12.00;99.90;;;;;;5047761;28;20490;-69
2024/02/22 15:40:39;;;;;;;0.77;0.77;;;12.10;99.90;;;;;;5051031;28;20488;-69
2024/02/22 15:43:08;;;;;;;1.10;1.10;;;12.10;99.90;;;;;;5042485;28;20466;-69
2024/02/22 15:45:35;;;;;;;0.70;0.70;;;12.00;99.90;;;;;;5047938;28;20605;-68
2024/02/22 15:48:03;;;;;;;1.00;1.00;;;11.90;99.90;;;;;;5051011;28;21009;-68
2024/02/22 15:50:30;;;;;;;1.47;1.13;;;11.90;99.90;;;;;;5048827;28;20462;-68
2024/02/22 15:52:56;;;;;;;0.90;0.90;;;11.90;99.90;;;;;;5049727;28;20486;-68
2024/02/22 15:55:23;;;;;;;1.13;1.13;;;11.80;99.90;;;;;;5043265;28;20561;-68
2024/02/22 15:57:50;;;;;;;1.13;1.13;;;11.70;99.90;;;;;;5047617;28;20233;-69
2024/02/22 16:00:18;;;;;;;1.33;1.33;;;11.70;99.90;;;;;;5049511;28;20492;-69
2024/02/22 16:02:45;;;;;;;2.97;0.90;;;11.70;99.90;;;;;;5052309;28;20477;-70
2024/02/22 16:05:13;;;;;;;0.90;0.90;;;11.70;99.90;;;;;;5053046;28;20479;-68
2024/02/22 16:07:41;;;;;;;1.23;1.23;;;11.60;99.90;;;;;;5053495;28;20527;-70
2024/02/22 16:10:09;;;;;;;2.77;1.03;;;11.50;99.90;;;;;;5052441;28;20534;-68
2024/02/22 16:12:36;;;;;;;0.57;0.57;;;11.40;99.90;;;;;;5054703;28;20486;-68
2024/02/22 16:15:05;;;;;;;0.70;0.70;;;11.30;99.90;;;;;;5053922;28;20461;-69
2024/02/22 16:17:32;;;;;;;0.90;0.90;;;11.30;99.90;;;;;;5055051;28;20486;-70
2024/02/22 16:20:00;;;;;;;0.60;0.60;;;11.30;99.90;;;;;;5052380;28;20459;-72
2024/02/22 16:22:31;;;;;;;2.85;0.70;;;11.20;99.90;;;;;;5052563;28;20453;-72
2024/02/22 16:24:58;;;;;;;0.63;0.63;;;11.30;99.90;;;;;;5053206;28;20199;-70
2024/02/22 16:27:25;;;;;;;0.67;0.67;;;11.30;99.90;;;;;;5053323;28;20547;-69
2024/02/22 16:29:52;;;;;;;0.67;0.67;;;11.30;99.90;;;;;;5051292;28;20492;-68
2024/02/22 16:32:19;;;;;;;0.50;0.50;;;11.30;99.90;;;;;;5052368;28;20606;-69
2024/02/22 16:34:45;;;;;;;0.60;0.60;;;11.20;99.90;;;;;;5052597;28;20816;-70
2024/02/22 16:37:13;;;;;;;0.60;0.60;;;11.10;99.90;;;;;;5052683;28;20476;-69
2024/02/22 16:39:43;;;;;;;0.77;0.77;;;11.10;99.90;;;;;;5052864;28;20468;-69
2024/02/22 16:42:10;;;;;;;0.50;0.50;;;11.20;99.90;;;;;;5044531;28;20487;-70
2024/02/22 16:44:40;;;;;;;2.30;2.20;;;11.30;99.90;;;;;;5051344;28;20954;-69
2024/02/22 16:47:07;;;;;;;0.40;0.40;;;11.30;99.90;;;;;;5051937;28;20454;-69
2024/02/22 16:49:33;;;;;;;0.20;0.20;;;11.30;99.90;;;;;;5052026;28;20465;-70
2024/02/22 16:52:03;;;;;;;3.07;1.50;;;11.30;99.90;;;;;;5051005;28;20465;-70
2024/02/22 16:54:29;;;;;;;0.90;0.90;;;11.30;99.90;;;;;;5052976;28;20461;-68
2024/02/22 16:56:57;;;;;;;2.43;0.97;;;11.20;99.90;;;;;;5052018;28;20226;-69
2024/02/22 16:59:24;;;;;;;0.80;0.80;;;11.30;99.90;;;;;;5050246;28;20487;-69
2024/02/22 17:01:51;;;;;;;0.77;0.77;;;11.30;99.90;;;;;;5051353;28;20466;-70
2024/02/22 17:04:18;;;;;;;0.40;0.40;;;11.20;99.90;;;;;;5054995;28;20692;-70
2024/02/22 17:06:45;;;;;;;1.98;1.88;;;11.30;99.90;;;;;;5053457;28;20466;-68
2024/02/22 17:09:11;;;;;;;0.98;0.98;;;11.20;99.90;;;;;;5051910;28;20698;-72
2024/02/22 17:11:38;;;;;;;1.17;0.82;;;11.30;99.90;;;;;;5053830;28;20213;-68
2024/02/22 17:14:07;;;;;;;0.70;0.70;;;11.30;99.90;;;;;;5052554;28;20235;-68
2024/02/22 17:16:34;;;;;;;1.63;1.63;;;11.40;99.90;;;;;;5051770;28;20260;-68
2024/02/22 17:19:01;;;;;;;0.70;0.70;;;11.40;99.90;;;;;;5051894;28;20229;-67
2024/02/22 17:21:28;;;;;;;1.20;0.90;;;11.40;99.90;;;;;;5051286;28;20467;-67
2024/02/22 17:23:54;;;;;;;0.68;0.68;;;11.40;99.90;;;;;;5049166;28;20202;-70
2024/02/22 17:26:21;;;;;;;1.00;1.00;;;11.40;99.90;;;;;;5050989;28;20214;-68
2024/02/22 17:28:48;;;;;;;0.65;0.65;;;11.30;99.90;;;;;;5050666;28;20293;-71
2024/02/22 17:31:16;;;;;;;2.50;2.43;;;11.30;99.90;;;;;;5048485;28;20217;-67
2024/02/22 17:33:43;;;;;;;1.30;1.20;;;11.30;99.90;;;;;;5048719;28;20491;-67
2024/02/22 17:36:09;;;;;;;0.77;0.77;;;11.20;99.90;;;;;;5046832;28;20202;-70
2024/02/22 17:38:36;;;;;;;0.85;0.85;;;11.30;99.90;;;;;;5045962;28;20229;-68
2024/02/22 17:41:03;;;;;;;0.50;0.50;;;11.30;99.90;;;;;;5038877;28;20293;-68
2024/02/22 17:43:31;;;;;;;0.70;0.70;;;11.30;99.90;;;;;;5043798;28;20880;-68
2024/02/22 17:45:57;;;;;;;0.83;0.57;;;11.40;99.90;;;;;;5049522;28;20278;-68
2024/02/22 17:48:25;;;;;;;0.40;0.40;;;11.40;99.90;;;;;;5051358;28;20503;-68